Terminal Aerodrome Forecast
Issued by NWS Mt. Holly, NJ

Home | Current Version | Previous Version | Text Only | Print | Product List | Glossary On
Versions: 1 2 3 4 5 6 7 8 9 10 11 12 13 14 15 16 17 18 19 20 21
815
FTUS41 KPHI 021951 AAA
TAFILG
TAF AMD
KILG 021951Z 0220/0318 17005KT P6SM OVC010
     FM022100 17006KT P6SM BKN015
     FM030100 14005KT 5SM -SHRA BR OVC009
     FM030400 08005KT 3SM SHRA BR OVC004
     FM031200 04009KT 4SM -DZ BR OVC005
     FM031500 02008KT 6SM BR OVC008=

USA.gov is the U.S. government's official web portal to all federal, state and local government web resources and services.